Time;durP1;ratioP1;P1;durP2;ratioP2;P2;SDS_P1;SDS_P2;PMS_P1;PMS_P2;Temp;Humidity;BMP_temperature;BMP_pressure;BME280_temperature;BME280_humidity;BME280_pressure;Samples;Min_cycle;Max_cycle;Signal;HPM_P1;HPM_P2
2022/04/18 00:00:07;;;;;;;15.23;9.75;;;7.70;99.90;;;;;;5041824;28;20278;-47
2022/04/18 00:02:35;;;;;;;15.93;7.70;;;7.70;99.90;;;;;;5041615;28;20200;-50
2022/04/18 00:05:02;;;;;;;13.65;8.80;;;7.70;99.90;;;;;;5042326;28;20264;-45
2022/04/18 00:07:29;;;;;;;11.05;8.13;;;7.70;99.90;;;;;;5043045;28;20208;-49
2022/04/18 00:09:57;;;;;;;12.48;8.23;;;7.70;99.90;;;;;;5043034;28;20299;-49
2022/04/18 00:12:24;;;;;;;13.18;7.57;;;7.50;99.90;;;;;;5042161;28;20522;-52
2022/04/18 00:14:51;;;;;;;12.02;6.97;;;7.40;99.90;;;;;;5042508;28;20223;-49
2022/04/18 00:17:18;;;;;;;12.00;7.00;;;7.20;99.90;;;;;;5042091;28;20207;-47
2022/04/18 00:19:46;;;;;;;9.35;6.38;;;7.30;99.90;;;;;;5041599;28;20581;-48
2022/04/18 00:22:13;;;;;;;15.98;9.65;;;7.20;99.90;;;;;;5041484;28;20200;-48
2022/04/18 00:24:41;;;;;;;12.88;9.75;;;7.20;99.90;;;;;;5041513;28;20441;-52
2022/04/18 00:27:08;;;;;;;11.65;8.32;;;7.30;99.90;;;;;;5041467;28;20250;-48
2022/04/18 00:29:35;;;;;;;12.93;8.63;;;7.20;99.90;;;;;;5041297;28;20523;-48
2022/04/18 00:32:03;;;;;;;16.65;9.43;;;7.10;99.90;;;;;;5042194;28;20230;-48
2022/04/18 00:34:32;;;;;;;11.57;7.65;;;7.10;99.90;;;;;;5041331;28;20238;-48
2022/04/18 00:36:59;;;;;;;16.42;9.00;;;7.10;99.90;;;;;;5041686;28;20211;-51
2022/04/18 00:39:26;;;;;;;12.60;9.45;;;7.00;99.90;;;;;;5041323;28;20278;-52
2022/04/18 00:41:56;;;;;;;12.55;7.82;;;6.90;99.90;;;;;;5041711;28;20207;-49
2022/04/18 00:44:24;;;;;;;22.52;9.35;;;6.90;99.90;;;;;;5040989;28;20242;-48
2022/04/18 00:46:55;;;;;;;15.50;10.18;;;6.70;99.90;;;;;;5041180;28;20207;-51
2022/04/18 00:49:22;;;;;;;16.35;10.23;;;6.60;99.90;;;;;;5041127;28;20458;-49
2022/04/18 00:51:49;;;;;;;16.15;10.35;;;6.50;99.90;;;;;;5041358;28;20253;-51
2022/04/18 00:54:17;;;;;;;22.00;11.55;;;6.50;99.90;;;;;;5040653;28;20248;-51
2022/04/18 00:56:44;;;;;;;16.42;10.75;;;6.60;99.90;;;;;;5041079;28;20254;-49
2022/04/18 00:59:11;;;;;;;19.10;13.07;;;6.60;99.90;;;;;;5040856;28;20423;-49
2022/04/18 01:01:39;;;;;;;24.55;15.75;;;6.70;99.90;;;;;;5040683;28;20444;-49
2022/04/18 01:04:06;;;;;;;24.55;14.50;;;6.80;99.90;;;;;;5041051;28;20516;-51
2022/04/18 01:06:36;;;;;;;29.08;16.85;;;6.90;99.90;;;;;;5040749;28;20212;-49
2022/04/18 01:09:04;;;;;;;29.20;15.90;;;7.10;99.90;;;;;;5040638;28;20220;-52
2022/04/18 01:11:33;;;;;;;29.85;17.52;;;7.10;99.90;;;;;;5040696;28;20199;-50
2022/04/18 01:14:04;;;;;;;37.25;19.50;;;7.10;99.90;;;;;;5040771;28;20211;-51
2022/04/18 01:16:31;;;;;;;28.33;18.25;;;7.00;99.90;;;;;;5040450;28;20219;-51
2022/04/18 01:18:58;;;;;;;31.95;19.40;;;7.00;99.90;;;;;;5040568;28;20313;-48
2022/04/18 01:21:26;;;;;;;31.88;18.83;;;7.10;99.90;;;;;;5040338;28;20235;-50
2022/04/18 01:23:57;;;;;;;25.35;16.50;;;7.20;99.90;;;;;;5040700;28;20196;-48
2022/04/18 01:29:10;;;;;;;32.72;17.17;;;7.40;99.90;;;;;;5040672;28;20258;-53
2022/04/18 01:31:38;;;;;;;25.30;14.63;;;7.50;99.90;;;;;;5034474;28;20204;-51
2022/04/18 01:34:07;;;;;;;29.85;16.83;;;7.50;99.90;;;;;;5050313;28;20257;-51
2022/04/18 01:36:35;;;;;;;25.75;14.32;;;7.60;99.90;;;;;;5060185;28;20249;-50
2022/04/18 01:39:02;;;;;;;23.83;14.38;;;7.60;99.90;;;;;;5060353;28;20226;-47
2022/04/18 01:41:30;;;;;;;18.20;13.35;;;7.60;99.90;;;;;;5060632;28;20199;-50
2022/04/18 01:43:57;;;;;;;23.40;14.20;;;7.70;99.90;;;;;;5060338;28;20257;-50
2022/04/18 01:46:24;;;;;;;29.60;14.85;;;7.60;99.90;;;;;;5060554;28;20199;-50
2022/04/18 01:48:52;;;;;;;22.90;15.15;;;7.70;99.90;;;;;;5060483;28;20553;-50
2022/04/18 01:51:20;;;;;;;24.80;14.55;;;7.70;99.90;;;;;;5060604;28;20200;-50
2022/04/18 01:53:52;;;;;;;32.60;16.00;;;7.60;99.90;;;;;;5060284;28;20187;-48
2022/04/18 01:56:19;;;;;;;21.55;13.48;;;7.40;99.90;;;;;;5066768;28;20241;-54
2022/04/18 01:58:48;;;;;;;29.65;15.98;;;7.50;99.90;;;;;;5070970;28;20226;-53
2022/04/18 02:01:15;;;;;;;20.95;14.52;;;7.60;99.90;;;;;;5060720;28;20245;-50
2022/04/18 02:03:42;;;;;;;24.45;15.20;;;7.50;99.90;;;;;;5059713;28;20433;-50
2022/04/18 02:06:10;;;;;;;27.83;13.80;;;7.50;99.90;;;;;;5062756;28;20207;-50
2022/04/18 02:08:38;;;;;;;20.98;13.35;;;7.20;99.90;;;;;;5063461;28;20218;-52
2022/04/18 02:11:06;;;;;;;30.58;14.15;;;7.00;99.90;;;;;;5064177;28;20253;-49
2022/04/18 02:13:33;;;;;;;25.35;14.23;;;6.70;99.90;;;;;;5063541;28;20203;-50
2022/04/18 02:16:00;;;;;;;18.25;12.20;;;6.80;99.90;;;;;;5064109;28;20200;-49
2022/04/18 02:18:28;;;;;;;21.00;13.30;;;6.80;99.90;;;;;;5063610;28;20254;-49
2022/04/18 02:20:55;;;;;;;22.13;14.98;;;6.70;99.90;;;;;;5063632;28;20223;-50
2022/04/18 02:23:23;;;;;;;24.33;12.88;;;6.80;99.90;;;;;;5063990;28;20196;-49
2022/04/18 02:25:50;;;;;;;23.23;14.55;;;6.80;99.90;;;;;;5063535;28;20200;-49
2022/04/18 02:28:18;;;;;;;23.30;12.95;;;7.00;99.90;;;;;;5063423;28;20557;-52
2022/04/18 02:30:45;;;;;;;20.40;13.18;;;7.10;99.90;;;;;;5063990;28;20208;-49
2022/04/18 02:33:13;;;;;;;22.98;14.80;;;7.10;99.90;;;;;;5063850;28;20203;-50
2022/04/18 02:35:40;;;;;;;18.20;12.98;;;7.10;99.90;;;;;;5063540;28;20511;-53
2022/04/18 02:38:07;;;;;;;19.08;12.52;;;7.10;99.90;;;;;;5063694;28;20220;-49
2022/04/18 02:40:34;;;;;;;27.95;14.35;;;7.20;99.90;;;;;;5063088;28;20227;-49
2022/04/18 02:43:01;;;;;;;20.98;14.50;;;7.20;99.90;;;;;;5063345;28;20233;-49
2022/04/18 02:45:31;;;;;;;24.33;14.43;;;6.90;99.90;;;;;;5062918;28;20199;-51
2022/04/18 02:47:59;;;;;;;23.85;15.45;;;6.70;99.90;;;;;;5063543;28;20315;-49
2022/04/18 02:50:27;;;;;;;22.58;14.98;;;6.40;99.90;;;;;;5063773;28;20264;-49
2022/04/18 02:52:54;;;;;;;23.75;15.23;;;6.20;99.90;;;;;;5063301;28;20210;-49
2022/04/18 02:55:22;;;;;;;22.05;15.40;;;5.90;99.90;;;;;;5063256;28;20546;-50
2022/04/18 02:57:49;;;;;;;26.95;16.50;;;5.70;99.90;;;;;;5063295;28;20203;-49
2022/04/18 03:00:16;;;;;;;27.10;16.90;;;5.80;99.90;;;;;;5062942;28;20265;-50
2022/04/18 03:02:43;;;;;;;23.70;15.85;;;5.90;99.90;;;;;;5062648;28;20600;-49
2022/04/18 03:05:12;;;;;;;24.33;15.00;;;6.10;99.90;;;;;;5063102;28;20394;-50
2022/04/18 03:07:39;;;;;;;22.58;14.55;;;6.20;99.90;;;;;;5062499;28;20214;-52
2022/04/18 03:10:07;;;;;;;19.27;14.48;;;6.20;99.90;;;;;;5062954;28;20519;-49
2022/04/18 03:12:34;;;;;;;20.45;14.55;;;6.00;99.90;;;;;;5062654;28;20200;-49
2022/04/18 03:15:04;;;;;;;31.50;14.75;;;5.70;99.90;;;;;;5068153;28;20218;-49
2022/04/18 03:17:31;;;;;;;18.20;13.48;;;5.70;99.90;;;;;;5066664;28;20214;-50
2022/04/18 03:19:58;;;;;;;19.63;13.05;;;5.70;99.90;;;;;;5067414;28;20632;-49
2022/04/18 03:22:25;;;;;;;30.00;16.77;;;5.70;99.90;;;;;;5069111;28;20199;-52
2022/04/18 03:24:53;;;;;;;19.13;12.95;;;5.50;99.90;;;;;;5065676;28;20439;-49
2022/04/18 03:27:20;;;;;;;19.77;12.63;;;5.40;99.90;;;;;;5062795;28;20203;-49
2022/04/18 03:29:48;;;;;;;17.20;11.80;;;5.40;99.90;;;;;;5062932;28;20222;-52
2022/04/18 03:32:16;;;;;;;15.40;11.73;;;5.40;99.90;;;;;;5062218;28;20200;-51
2022/04/18 03:34:46;;;;;;;14.60;9.38;;;5.40;99.90;;;;;;5062135;28;20203;-51
2022/04/18 03:39:59;;;;;;;13.85;9.52;;;5.40;99.90;;;;;;5062304;28;20340;-50
2022/04/18 03:42:29;;;;;;;10.55;8.43;;;5.50;99.90;;;;;;5062347;28;20199;-50
2022/04/18 03:45:04;;;;;;;11.80;9.38;;;5.70;99.90;;;;;;5062337;28;20203;-51
2022/04/18 03:47:32;;;;;;;10.07;7.57;;;5.60;99.90;;;;;;5062465;28;20442;-49
2022/04/18 03:49:59;;;;;;;17.75;9.75;;;5.70;99.90;;;;;;5062098;28;20199;-48
2022/04/18 03:52:27;;;;;;;13.48;9.65;;;5.50;99.90;;;;;;5062079;28;20206;-48
2022/04/18 03:54:54;;;;;;;13.93;7.57;;;5.50;99.90;;;;;;5061943;28;20199;-50
2022/04/18 03:57:22;;;;;;;15.25;9.48;;;5.50;99.90;;;;;;5061996;28;20398;-49
2022/04/18 03:59:49;;;;;;;14.88;9.27;;;5.30;99.90;;;;;;5061307;28;20457;-50
2022/04/18 04:02:16;;;;;;;14.00;8.75;;;5.10;99.90;;;;;;5062093;28;20203;-50
2022/04/18 04:04:43;;;;;;;19.08;9.32;;;5.00;99.90;;;;;;5061346;28;20258;-48
2022/04/18 04:07:11;;;;;;;13.38;9.18;;;4.90;99.90;;;;;;5061892;28;20249;-50
2022/04/18 04:09:38;;;;;;;11.60;9.27;;;4.90;99.90;;;;;;5061280;28;20223;-51
2022/04/18 04:12:07;;;;;;;9.40;7.30;;;4.90;99.90;;;;;;5061850;28;20199;-50
2022/04/18 04:14:34;;;;;;;12.35;9.25;;;5.00;99.90;;;;;;5061353;28;20199;-47
2022/04/18 04:17:05;;;;;;;16.77;7.90;;;4.90;99.90;;;;;;5062067;28;20236;-48
2022/04/18 04:19:32;;;;;;;10.82;8.43;;;4.80;99.90;;;;;;5061260;28;20222;-49
2022/04/18 04:22:00;;;;;;;10.70;8.73;;;4.70;99.90;;;;;;5060909;28;20196;-48
2022/04/18 04:24:27;;;;;;;14.80;7.72;;;4.70;99.90;;;;;;5061659;28;20198;-48
2022/04/18 04:26:55;;;;;;;12.60;7.68;;;4.80;99.90;;;;;;5060932;28;20197;-48
2022/04/18 04:29:22;;;;;;;9.63;7.05;;;4.80;99.90;;;;;;5060885;28;20273;-47
2022/04/18 04:31:49;;;;;;;12.38;8.90;;;4.90;99.90;;;;;;5061164;28;20233;-49
2022/04/18 04:34:16;;;;;;;14.45;9.38;;;5.00;99.90;;;;;;5060858;28;20207;-54
2022/04/18 04:36:44;;;;;;;10.90;7.20;;;5.10;99.90;;;;;;5060637;28;20196;-49
2022/04/18 04:39:11;;;;;;;7.88;6.22;;;5.30;99.90;;;;;;5060874;28;20268;-51
2022/04/18 04:41:38;;;;;;;9.50;7.25;;;5.30;99.90;;;;;;5062458;28;20545;-51
2022/04/18 04:44:06;;;;;;;11.27;6.75;;;5.10;99.90;;;;;;5064902;28;20222;-51
2022/04/18 04:46:34;;;;;;;12.27;5.90;;;5.10;99.90;;;;;;5061670;28;20528;-50
2022/04/18 04:49:05;;;;;;;10.70;6.30;;;4.90;99.90;;;;;;5060511;28;20576;-54
2022/04/18 04:51:32;;;;;;;11.50;7.28;;;4.90;99.90;;;;;;5060798;28;20203;-51
2022/04/18 04:54:00;;;;;;;10.48;7.28;;;5.20;99.90;;;;;;5060693;28;20252;-49
2022/04/18 04:56:28;;;;;;;11.65;7.15;;;5.30;99.90;;;;;;5060086;28;20200;-48
2022/04/18 04:58:58;;;;;;;8.32;5.95;;;5.70;99.90;;;;;;5060475;28;20277;-51
2022/04/18 05:01:25;;;;;;;11.25;7.13;;;6.00;99.90;;;;;;5060826;28;20457;-52
2022/04/18 05:03:53;;;;;;;12.23;7.47;;;6.20;99.90;;;;;;5060843;28;20219;-52
2022/04/18 05:06:20;;;;;;;8.93;5.95;;;6.30;99.90;;;;;;5060401;28;20249;-49
2022/04/18 05:08:48;;;;;;;8.65;5.32;;;6.40;99.90;;;;;;5060433;28;20257;-50
2022/04/18 05:11:15;;;;;;;9.38;7.30;;;6.30;99.90;;;;;;5060594;28;20211;-48
2022/04/18 05:13:43;;;;;;;6.60;5.70;;;6.20;99.90;;;;;;5060439;28;20242;-51
2022/04/18 05:16:10;;;;;;;14.63;9.77;;;6.40;99.90;;;;;;5060362;28;20429;-49
2022/04/18 05:18:38;;;;;;;10.18;6.22;;;6.50;99.90;;;;;;5060285;28;20251;-50
2022/04/18 05:21:06;;;;;;;9.88;5.80;;;6.50;99.90;;;;;;5060303;28;20576;-51
2022/04/18 05:23:33;;;;;;;7.07;5.93;;;6.60;99.90;;;;;;5060423;28;20203;-50
2022/04/18 05:26:01;;;;;;;7.13;5.57;;;6.70;99.90;;;;;;5062338;28;20203;-48
2022/04/18 05:28:29;;;;;;;13.68;6.68;;;6.70;99.90;;;;;;5060276;28;20215;-49
2022/04/18 05:31:00;;;;;;;7.93;4.95;;;6.70;99.90;;;;;;5061559;28;20199;-50
2022/04/18 05:33:28;;;;;;;8.70;5.80;;;6.80;99.90;;;;;;5060624;28;20237;-47
2022/04/18 05:35:55;;;;;;;8.52;6.60;;;6.70;99.90;;;;;;5060258;28;20212;-54
2022/04/18 05:38:23;;;;;;;10.70;5.65;;;6.70;99.90;;;;;;5050104;28;20266;-51
2022/04/18 05:40:50;;;;;;;11.30;6.18;;;6.50;99.90;;;;;;5039167;28;20228;-50
2022/04/18 05:43:17;;;;;;;8.05;6.57;;;6.50;99.90;;;;;;5039915;28;20226;-48
2022/04/18 05:45:48;;;;;;;7.75;6.22;;;6.60;99.90;;;;;;5039772;28;20215;-48
2022/04/18 05:48:15;;;;;;;7.82;6.43;;;6.70;99.90;;;;;;5039982;28;20222;-47
2022/04/18 05:50:45;;;;;;;7.78;6.68;;;6.80;99.90;;;;;;5039052;28;20200;-52
2022/04/18 05:53:14;;;;;;;8.10;6.28;;;6.90;99.90;;;;;;5039697;28;20196;-50
2022/04/18 05:55:42;;;;;;;13.13;7.60;;;7.10;99.90;;;;;;5039840;28;20442;-50
2022/04/18 05:58:09;;;;;;;9.50;8.32;;;7.30;99.90;;;;;;5040040;28;20228;-50
2022/04/18 06:00:37;;;;;;;9.82;6.70;;;7.50;99.90;;;;;;5039615;28;20426;-52
2022/04/18 06:03:04;;;;;;;9.43;6.57;;;7.80;99.90;;;;;;5039592;28;20250;-53
2022/04/18 06:05:32;;;;;;;9.00;5.45;;;8.20;99.90;;;;;;5039054;28;20411;-50
2022/04/18 06:08:00;;;;;;;8.15;5.50;;;8.40;99.90;;;;;;5040080;28;20307;-50
2022/04/18 06:10:27;;;;;;;9.75;6.20;;;8.80;99.90;;;;;;5040882;28;20200;-50
2022/04/18 06:12:57;;;;;;;7.43;6.55;;;9.00;99.90;;;;;;5040900;28;20406;-49
2022/04/18 06:15:25;;;;;;;10.73;5.55;;;9.50;99.90;;;;;;5041491;28;20236;-50
2022/04/18 06:17:52;;;;;;;12.32;7.10;;;9.50;99.90;;;;;;5041488;28;20207;-52
2022/04/18 06:20:19;;;;;;;10.45;6.07;;;9.70;99.90;;;;;;5041694;28;20231;-50
2022/04/18 06:22:47;;;;;;;10.45;6.05;;;9.60;99.90;;;;;;5039846;28;20203;-50
2022/04/18 06:25:14;;;;;;;9.10;5.25;;;10.00;99.90;;;;;;5039692;28;20388;-49
2022/04/18 06:27:42;;;;;;;7.25;6.03;;;10.20;99.90;;;;;;5039153;28;20207;-50
2022/04/18 06:30:09;;;;;;;7.57;6.35;;;10.90;99.90;;;;;;5039537;28;20237;-53
2022/04/18 06:32:37;;;;;;;7.95;5.57;;;11.60;99.90;;;;;;5039347;28;20279;-49
2022/04/18 06:35:05;;;;;;;9.27;5.50;;;11.80;99.90;;;;;;5039277;28;20275;-52
2022/04/18 06:37:32;;;;;;;8.70;6.50;;;11.70;99.90;;;;;;5039615;28;20242;-51
2022/04/18 06:40:00;;;;;;;9.25;5.40;;;11.50;99.90;;;;;;5040146;28;20246;-50
2022/04/18 06:42:33;;;;;;;9.43;6.40;;;11.20;99.90;;;;;;5039757;28;20196;-51
2022/04/18 06:45:01;;;;;;;8.07;5.93;;;11.70;99.90;;;;;;5039539;28;20459;-49
2022/04/18 06:47:28;;;;;;;9.40;5.63;;;12.50;99.90;;;;;;5039170;28;20252;-49
2022/04/18 06:49:56;;;;;;;7.38;5.80;;;13.30;99.90;;;;;;5039094;28;20286;-53
2022/04/18 06:52:24;;;;;;;7.07;5.30;;;14.00;99.90;;;;;;5044085;28;20200;-49
2022/04/18 06:54:51;;;;;;;10.27;6.60;;;15.60;99.90;;;;;;5043872;28;20213;-49
2022/04/18 06:57:19;;;;;;;7.70;6.68;;;15.80;97.30;;;;;;5044269;28;20248;-52
2022/04/18 06:59:49;;;;;;;9.13;5.77;;;14.90;98.00;;;;;;5043536;28;20267;-51
2022/04/18 07:02:16;;;;;;;7.07;5.87;;;15.40;97.30;;;;;;5043489;28;20475;-52
2022/04/18 07:04:43;;;;;;;7.13;5.90;;;15.50;96.30;;;;;;5042647;28;20436;-50
2022/04/18 07:07:10;;;;;;;7.10;6.10;;;16.10;94.90;;;;;;5042719;28;20466;-49
2022/04/18 07:09:38;;;;;;;7.50;5.30;;;16.80;93.40;;;;;;5041975;28;20547;-51
2022/04/18 07:12:06;;;;;;;8.10;6.87;;;15.80;93.30;;;;;;5042617;28;20434;-52
2022/04/18 07:14:36;;;;;;;9.30;7.00;;;16.60;92.40;;;;;;5042166;28;20519;-48
2022/04/18 07:17:04;;;;;;;7.97;6.67;;;15.90;91.90;;;;;;5042501;28;20399;-50
2022/04/18 07:19:32;;;;;;;9.80;7.07;;;16.50;91.80;;;;;;5041999;28;20463;-50
2022/04/18 07:22:02;;;;;;;8.33;6.17;;;16.60;90.40;;;;;;5042068;28;20858;-51
2022/04/18 07:24:29;;;;;;;8.40;7.17;;;17.10;89.20;;;;;;5042351;28;20712;-52
2022/04/18 07:27:00;;;;;;;9.77;6.73;;;16.90;90.20;;;;;;5042914;28;20479;-55
2022/04/18 07:29:31;;;;;;;8.27;6.37;;;17.90;86.30;;;;;;5046429;28;20457;-53
2022/04/18 07:31:58;;;;;;;12.10;8.30;;;17.90;83.10;;;;;;5042871;28;20457;-50
2022/04/18 07:34:25;;;;;;;10.97;7.67;;;18.30;81.80;;;;;;5042208;28;20441;-52
2022/04/18 07:36:53;;;;;;;9.30;7.10;;;19.20;77.90;;;;;;5041698;28;20421;-54
2022/04/18 07:39:20;;;;;;;9.87;7.00;;;18.20;76.10;;;;;;5042298;28;20583;-52
2022/04/18 07:41:47;;;;;;;9.60;7.00;;;16.70;82.00;;;;;;5042207;28;20473;-51
2022/04/18 07:44:15;;;;;;;9.03;7.57;;;18.30;75.50;;;;;;5041694;28;20731;-49
2022/04/18 07:46:43;;;;;;;14.50;9.67;;;18.70;75.60;;;;;;5041341;28;20418;-53
2022/04/18 07:49:10;;;;;;;8.80;7.90;;;18.80;75.40;;;;;;5041197;28;20432;-52
2022/04/18 07:51:41;;;;;;;7.70;7.00;;;18.60;73.90;;;;;;5041027;28;20457;-51
2022/04/18 07:54:12;;;;;;;11.47;7.70;;;18.80;73.50;;;;;;5041358;28;20593;-50
2022/04/18 07:56:39;;;;;;;10.23;7.40;;;20.30;70.30;;;;;;5041480;28;20415;-55
2022/04/18 07:59:07;;;;;;;7.03;6.30;;;20.70;67.40;;;;;;5040824;28;20460;-53
2022/04/18 08:01:34;;;;;;;9.27;7.47;;;19.90;65.40;;;;;;5041065;28;20592;-49
2022/04/18 08:04:03;;;;;;;8.20;6.93;;;20.40;64.40;;;;;;5040913;28;20402;-51
2022/04/18 08:06:31;;;;;;;8.20;6.77;;;21.80;62.30;;;;;;5040998;28;20501;-53
2022/04/18 08:08:59;;;;;;;9.17;7.93;;;21.40;61.70;;;;;;5041519;28;20743;-50
2022/04/18 08:11:27;;;;;;;10.03;6.70;;;21.50;59.60;;;;;;5041375;28;20434;-50
2022/04/18 08:13:54;;;;;;;8.63;5.67;;;22.00;59.40;;;;;;5040988;28;20410;-54
2022/04/18 08:16:22;;;;;;;9.80;7.97;;;22.30;58.90;;;;;;5041177;28;20443;-50
2022/04/18 08:18:50;;;;;;;7.50;6.33;;;22.10;58.70;;;;;;5038947;28;20458;-49
2022/04/18 08:21:17;;;;;;;7.50;6.80;;;21.80;57.50;;;;;;5040414;28;20484;-53
2022/04/18 08:23:46;;;;;;;8.40;7.30;;;23.60;54.90;;;;;;5040310;28;20772;-51
2022/04/18 08:26:14;;;;;;;8.73;7.53;;;23.90;54.50;;;;;;5040419;28;20449;-52
2022/04/18 08:28:42;;;;;;;9.17;6.40;;;23.40;52.50;;;;;;5040739;28;20669;-49
2022/04/18 08:31:09;;;;;;;6.47;4.80;;;23.70;53.60;;;;;;5040941;28;20476;-53
2022/04/18 08:33:37;;;;;;;6.73;6.07;;;23.10;53.30;;;;;;5040428;28;20430;-51
2022/04/18 08:36:06;;;;;;;6.67;5.57;;;21.80;53.90;;;;;;5041155;28;20441;-52
2022/04/18 08:38:33;;;;;;;12.10;6.00;;;21.00;55.30;;;;;;5040280;28;20687;-50
2022/04/18 08:41:04;;;;;;;7.43;5.40;;;22.00;54.70;;;;;;5040961;28;20499;-50
2022/04/18 08:43:31;;;;;;;9.50;6.27;;;22.50;54.20;;;;;;5040944;28;20433;-48
2022/04/18 08:46:01;;;;;;;7.73;6.20;;;21.10;56.00;;;;;;5040583;28;20437;-53
2022/04/18 08:54:05;;;;;;;4.50;4.10;;;19.50;58.70;;;;;;5040542;28;20472;-54
2022/04/18 08:56:33;;;;;;;6.87;4.37;;;20.00;57.10;;;;;;5040050;28;20429;-51
2022/04/18 08:59:00;;;;;;;8.23;5.77;;;18.80;59.90;;;;;;5040483;28;20449;-50
2022/04/18 09:01:29;;;;;;;9.70;5.00;;;18.90;61.40;;;;;;5039948;28;20906;-54
2022/04/18 09:03:59;;;;;;;8.80;5.77;;;19.20;61.30;;;;;;5040422;28;20400;-52
2022/04/18 09:06:29;;;;;;;8.50;5.77;;;19.90;59.80;;;;;;5039905;28;20676;-51
2022/04/18 09:08:57;;;;;;;4.53;4.20;;;21.10;57.80;;;;;;5040622;28;20749;-50
2022/04/18 09:11:31;;;;;;;6.23;4.87;;;21.70;55.90;;;;;;5039474;28;20429;-52
2022/04/18 09:14:12;;;;;;;5.23;4.23;;;21.30;56.10;;;;;;5039416;28;20430;-49
2022/04/18 09:16:43;;;;;;;6.27;3.20;;;18.90;58.60;;;;;;5039114;28;20470;-51
2022/04/18 09:19:16;;;;;;;4.20;3.07;;;17.50;60.70;;;;;;5040132;28;20435;-49
2022/04/18 09:21:58;;;;;;;3.83;3.27;;;17.40;61.00;;;;;;5039958;28;20510;-52
2022/04/18 09:24:35;;;;;;;2.80;2.60;;;18.20;59.10;;;;;;5039845;28;20404;-51
2022/04/18 09:27:11;;;;;;;3.03;2.70;;;16.90;61.10;;;;;;5039946;28;20443;-51
2022/04/18 09:29:40;;;;;;;2.27;2.07;;;16.20;62.60;;;;;;5039561;28;20441;-49
2022/04/18 09:32:12;;;;;;;2.40;1.93;;;15.40;61.40;;;;;;5039382;28;20521;-49
2022/04/18 09:34:40;;;;;;;2.03;1.83;;;15.00;60.90;;;;;;5039662;28;20447;-52
2022/04/18 09:37:13;;;;;;;2.13;1.92;;;14.20;64.10;;;;;;5039354;28;20300;-50
2022/04/18 09:39:54;;;;;;;2.53;2.33;;;13.90;64.50;;;;;;5040506;28;20274;-50
2022/04/18 09:42:24;;;;;;;2.90;2.17;;;13.80;64.70;;;;;;5039609;28;20238;-54
2022/04/18 09:44:51;;;;;;;3.22;2.78;;;13.80;65.20;;;;;;5039960;28;20613;-49
2022/04/18 09:47:21;;;;;;;3.53;2.80;;;13.90;66.60;;;;;;5039476;28;20198;-52
2022/04/18 09:49:49;;;;;;;2.08;1.80;;;13.80;65.60;;;;;;5039181;28;20542;-51
2022/04/18 09:52:18;;;;;;;3.30;3.00;;;13.80;65.40;;;;;;5039557;28;20208;-51
2022/04/18 09:54:56;;;;;;;3.92;3.17;;;14.00;64.90;;;;;;5039415;28;20214;-51
2022/04/18 09:57:28;;;;;;;3.85;2.40;;;14.30;63.90;;;;;;5040621;28;20600;-53
2022/04/18 09:59:57;;;;;;;2.33;2.13;;;14.30;65.10;;;;;;5039702;28;20418;-52
2022/04/18 10:02:25;;;;;;;8.20;2.15;;;14.40;65.70;;;;;;5040103;28;20227;-51
2022/04/18 10:04:53;;;;;;;4.80;2.90;;;14.00;66.40;;;;;;5039504;28;20230;-48
2022/04/18 10:07:21;;;;;;;1.98;1.88;;;13.90;65.30;;;;;;5039893;28;20267;-51
2022/04/18 10:09:48;;;;;;;2.50;2.30;;;13.70;65.10;;;;;;5039552;28;20299;-50
2022/04/18 10:12:15;;;;;;;2.78;2.33;;;13.50;64.40;;;;;;5039854;28;20410;-51
2022/04/18 10:14:44;;;;;;;4.00;2.25;;;13.40;64.70;;;;;;5041750;28;20204;-53
2022/04/18 10:17:17;;;;;;;6.28;1.95;;;13.80;64.70;;;;;;5044972;28;20208;-52
2022/04/18 10:20:14;;;;;;;3.17;2.60;;;13.90;64.10;;;;;;5039619;28;20235;-48
2022/04/18 10:23:38;;;;;;;3.25;2.55;;;13.70;65.00;;;;;;5039796;28;20234;-49
2022/04/18 10:26:20;;;;;;;2.38;1.75;;;13.70;64.70;;;;;;5018256;28;20228;-50
2022/04/18 10:28:50;;;;;;;2.70;1.73;;;13.50;64.10;;;;;;5041309;28;20216;-51
2022/04/18 10:31:23;;;;;;;2.55;2.08;;;13.50;64.00;;;;;;5043080;28;20251;-51
2022/04/18 10:33:50;;;;;;;2.30;2.00;;;13.70;63.40;;;;;;5043475;28;20200;-51
2022/04/18 10:36:32;;;;;;;2.80;2.35;;;13.60;63.30;;;;;;5042601;28;20204;-49
2022/04/18 10:39:07;;;;;;;2.13;1.92;;;13.30;63.40;;;;;;5042795;28;20220;-50
2022/04/18 10:41:44;;;;;;;4.30;2.88;;;13.30;62.60;;;;;;5042674;28;20274;-49
2022/04/18 10:44:18;;;;;;;2.53;2.33;;;13.10;63.20;;;;;;5042821;28;20279;-51
2022/04/18 10:46:51;;;;;;;2.25;2.03;;;12.80;65.20;;;;;;5042539;28;20211;-49
2022/04/18 10:49:20;;;;;;;2.00;1.90;;;13.30;64.90;;;;;;5043405;28;20220;-49
2022/04/18 10:51:51;;;;;;;2.78;2.20;;;13.60;62.70;;;;;;5042852;28;20246;-54
2022/04/18 10:54:28;;;;;;;3.65;2.33;;;13.90;63.00;;;;;;5042728;28;20208;-50
2022/04/18 10:56:58;;;;;;;3.60;2.63;;;14.00;62.60;;;;;;5042619;28;20246;-50
2022/04/18 10:59:29;;;;;;;4.35;3.55;;;13.70;63.20;;;;;;5042661;28;20220;-48
2022/04/18 11:02:04;;;;;;;2.05;1.85;;;13.40;64.40;;;;;;5042172;28;20228;-50
2022/04/18 11:04:53;;;;;;;4.75;2.00;;;13.40;64.30;;;;;;5042391;28;20206;-49
2022/04/18 11:07:37;;;;;;;2.08;1.83;;;13.60;62.30;;;;;;5041823;28;20212;-51
2022/04/18 11:10:37;;;;;;;2.00;1.90;;;13.60;63.40;;;;;;5042256;28;20262;-49
2022/04/18 11:13:06;;;;;;;9.38;2.20;;;13.60;64.90;;;;;;5038391;28;20208;-50
2022/04/18 11:15:33;;;;;;;2.35;2.13;;;13.60;65.30;;;;;;5042250;28;20227;-51
2022/04/18 11:18:08;;;;;;;2.50;2.30;;;13.70;65.90;;;;;;5041651;28;20219;-49
2022/04/18 11:20:38;;;;;;;3.58;2.55;;;13.50;63.60;;;;;;5042732;28;20222;-48
2022/04/18 11:23:20;;;;;;;3.28;2.10;;;13.30;65.60;;;;;;5044976;28;20243;-54
2022/04/18 11:25:55;;;;;;;2.33;2.03;;;13.20;65.00;;;;;;5046383;28;20196;-50
2022/04/18 11:28:39;;;;;;;3.55;2.17;;;13.30;64.50;;;;;;5041919;28;20222;-50
2022/04/18 11:31:21;;;;;;;3.25;2.55;;;13.40;63.00;;;;;;5042175;28;20203;-48
2022/04/18 11:33:49;;;;;;;4.47;3.03;;;13.10;63.80;;;;;;5041681;28;20570;-50
2022/04/18 11:36:16;;;;;;;4.07;2.95;;;13.40;64.20;;;;;;5042024;28;20203;-48
2022/04/18 11:38:43;;;;;;;3.67;2.17;;;13.50;64.90;;;;;;5040484;28;20609;-50
2022/04/18 11:41:12;;;;;;;3.13;2.83;;;13.50;64.10;;;;;;5041652;28;20211;-50
2022/04/18 11:43:40;;;;;;;3.42;3.15;;;13.40;63.50;;;;;;5041792;28;20254;-49
2022/04/18 11:46:09;;;;;;;3.78;2.17;;;13.40;63.00;;;;;;5041934;28;20218;-52
2022/04/18 11:48:37;;;;;;;3.65;2.60;;;13.40;64.20;;;;;;5041057;28;20604;-49
2022/04/18 11:51:08;;;;;;;2.45;2.25;;;13.70;64.90;;;;;;5041894;28;20267;-50
2022/04/18 11:53:42;;;;;;;4.80;2.55;;;13.90;63.90;;;;;;5041152;28;20517;-48
2022/04/18 11:56:11;;;;;;;2.47;2.28;;;13.90;64.20;;;;;;5041289;28;20308;-47
2022/04/18 11:58:41;;;;;;;2.75;2.50;;;13.60;64.30;;;;;;5040249;28;20216;-49
2022/04/18 12:06:49;;;;;;;3.13;2.80;;;12.80;65.10;;;;;;5041412;28;20211;-50
2022/04/18 12:09:23;;;;;;;2.63;2.35;;;13.20;65.30;;;;;;5040673;28;20219;-49
2022/04/18 12:11:50;;;;;;;2.83;2.60;;;13.60;64.60;;;;;;5040716;28;20200;-50
2022/04/18 12:14:20;;;;;;;3.10;2.38;;;13.30;65.50;;;;;;5040023;28;20196;-50
2022/04/18 12:16:47;;;;;;;4.18;3.13;;;13.30;66.20;;;;;;5040776;28;20200;-49
2022/04/18 12:19:18;;;;;;;4.85;3.05;;;13.80;64.10;;;;;;5040587;28;20509;-49
2022/04/18 12:21:55;;;;;;;4.63;3.10;;;13.60;62.50;;;;;;5040364;28;20230;-49
2022/04/18 12:24:26;;;;;;;4.15;3.00;;;13.40;61.80;;;;;;5040992;28;20204;-48
2022/04/18 12:26:53;;;;;;;5.43;2.80;;;13.70;64.20;;;;;;5040434;28;20204;-47
2022/04/18 12:29:21;;;;;;;3.50;2.97;;;13.80;65.00;;;;;;5040812;28;20216;-52
2022/04/18 12:31:48;;;;;;;2.63;2.42;;;14.00;63.40;;;;;;5040452;28;20204;-50
2022/04/18 12:34:17;;;;;;;3.90;3.22;;;14.10;63.40;;;;;;5040478;28;20307;-49
2022/04/18 12:36:59;;;;;;;2.90;2.63;;;13.90;63.80;;;;;;5040696;28;20439;-50
2022/04/18 12:39:27;;;;;;;2.05;1.95;;;14.20;63.10;;;;;;5040222;28;20227;-52
2022/04/18 12:42:05;;;;;;;2.78;2.25;;;14.20;61.60;;;;;;5040383;28;20538;-49
2022/04/18 12:44:33;;;;;;;3.95;2.90;;;14.40;62.70;;;;;;5040794;28;20219;-50
2022/04/18 12:47:20;;;;;;;7.55;3.50;;;14.10;63.70;;;;;;5040746;28;20267;-50
2022/04/18 12:50:08;;;;;;;4.30;2.90;;;14.00;64.00;;;;;;5040213;28;20223;-51
2022/04/18 12:52:46;;;;;;;2.95;2.72;;;13.70;63.60;;;;;;5041767;28;20200;-49
2022/04/18 12:55:13;;;;;;;3.15;2.63;;;13.60;64.60;;;;;;5041597;28;20212;-48
2022/04/18 12:57:46;;;;;;;3.40;2.90;;;13.50;64.10;;;;;;5041088;28;20204;-52
2022/04/18 13:00:14;;;;;;;2.75;2.55;;;13.60;63.80;;;;;;5045220;28;20246;-46
2022/04/18 13:03:05;;;;;;;5.03;2.88;;;13.60;63.60;;;;;;5042632;28;20451;-49
2022/04/18 13:05:34;;;;;;;3.78;2.70;;;13.00;64.10;;;;;;5043056;28;20219;-50
2022/04/18 13:08:05;;;;;;;2.75;2.53;;;12.70;64.70;;;;;;5039470;28;20293;-51
2022/04/18 13:10:35;;;;;;;4.30;3.10;;;12.70;65.10;;;;;;5040527;28;20243;-48
2022/04/18 13:13:17;;;;;;;3.15;2.67;;;12.90;65.40;;;;;;5040185;28;20521;-49